首页
METAR-TAF:

METAR-TAF

机场 :

Waddington, 英格兰

纬度: 53-10N, 经度: 000-31W, 海拔: 68米

当前天气观测

该预报发布于35分钟前的07:50 UTC
风速5节,风向北转东北
温度 13°C
湿度 82%
气压 1016 hPa
能见度10公里或以上

METAR: EGXW 190750Z AUTO 03005KT 9999 BKN029/// 13/10 Q1016

时间: 09:25 (08:25 UTC)

预报

该预报发布于16小时和17分钟前的16:08 UTC
预报有效从18日的 18点(UTC)到 19日的 12点(UTC)
风速12节,风向北转东北
能見度: 8000
多云层高于800英尺
短暂存在
从 18日的 18点(UTC)到 18日的 22点(UTC)
能見度: 6000
几率 40% :
短暂存在
从 18日的 18点(UTC)到 18日的 22点(UTC)
能見度: 4000
几率 30% :
短暂存在
从 18日的 18点(UTC)到 18日的 22点(UTC)
能見度: 2000
多云层高于500英尺
成为
从 18日的 22点(UTC)到 19日的 01点(UTC)
几率 40%
从 18日的 22点(UTC)到 19日的 06点(UTC)
多云层高于400英尺
成为
从 19日的 07点(UTC)到 19日的 09点(UTC)
多云层高于1500英尺
成为
从 19日的 10点(UTC)到 19日的 12点(UTC)
多云层高于2500英尺

TAF: EGXW 181608Z 1818/1912 03012KT 8000 RA BKN008 TEMPO 1818/1822 6000 RA PROB40 TEMPO 1818/1822 4000 PROB30 TEMPO 1818/1822 2000 BKN005 BECMG 1822/1901 NSW PROB40 1822/1906 BKN004 BECMG 1907/1909 BKN015 BECMG 1910/1912 BKN025

超过4000个机场的气象观测和天气预报(METAR&TAF报告)。

可查询的气象台以黄色和红色小点在地图上表示。

将鼠标移到小点上方,可查看气象台名称。

然后点击查看天气观测和预报。

如需切换地图:点击带黑十字的绿色按钮放大地图;点击带横线的绿色按钮缩小地图;或者点击绿色箭头查看邻近地区的地图。


METAR-TAF: